TFM - Tactical Decision Aid
ID: Runway Winds: CIG/VIS Threshold:

KHPN - White Plains/Westche, NY, US

Updated at: 1828 UTC 26 Oct 2021
Latest TAF at: 1729 UTC 26 Oct 2021

TAF Board

Time1756Z 26/19Z 26/20Z 26/21Z 26/22Z 26/23Z 27/00Z 27/01Z 27/02Z 27/03Z 27/04Z 27/05Z 27/06Z 27/07Z>>
Type OBS PRVL PRVL PRVL PRVL PRVL PRVL PRVL PRVL PRVL PRVL PRVL PRVL PRVL
VIS 10 4 4 4 4 3 3 3 3 4 4 4 4 4
CIG 5 6 6 6 6 6 6 6 6 10 10 10 10 10
Cover OVC BKN BKN BKN BKN OVC OVC OVC OVC OVC OVC OVC OVC OVC
FltCat IFR IFR IFR IFR IFR IFR IFR IFR IFR MVFR MVFR MVFR MVFR MVFR
WX -- RA BR RA BR RA BR RA BR RA BR RA BR RA BR RA BR -RA BR -RA BR -RA BR -RA BR -RA BR
WDir 140 160 160 160 160 360 360 360 360 340 340 340 340 340
WSpd 11 12 12 12 12 19 19 19 19 23 23 23 23 23
WGst -- 20 20 20 20 27 27 27 27 33 33 33 33 33

TDA Impact Legend

  None Marginal Slight Moderate High
Visibility (sm) >5 3≤X≤5 2≤X<3 0.75≤X<2 <0.75
Ceiling (100 ft) >30 10≤X≤30 6≤X<10 3≤X<6 <3
Wind Speed (kt) <15 15≤X<25 25≤X<30 ≥30
Wind Gust (kt) <15 15≤X<25 25≤X<35 ≥35
Weather No Wx Reported VCTS -TS,-FZRA TS,FZRA +TS,+FZRA
TAF
KHPN 261729Z 2618/2718 16012G20KT 4SM RA BR BKN006
  TEMPO 2618/2619 2SM RA BR BKN003
  FM262300 36019G27KT 3SM RA BR BKN006 OVC012
  FM270300 34023G33KT 4SM -RA BR BKN010 OVC020
  FM270800 34027G38KT P6SM VCSH BKN015 OVC025 AMD NOT SKED


METAR
KHPN 261756Z 14011KT 10SM BKN005 OVC010 14/13 A2936 RMK AO2 SLP941 60148 T01440133 10172 20139 53012
KHPN 261656Z 16010G20KT 4SM BR BKN005 OVC010 14/14 A2935 RMK AO2 WSHFT 1544 RAE53 SLP938 P0001 T01440139
KHPN 261556Z 16014G30KT 1SM R16/4000VP6000FT RA BR BKN003 OVC010 17/16 A2933 RMK AO2 PK WND 07035/1506 PRESRR SLP929 P0012 T01670161

Radar Display
Forecast Discussion